Kellys, Louisiana
Current Conditions -  °F | °C
As of 5:35 PM on Friday 19 Dec 2014 (Local Time) from KRSN Reporting Station
Light Rain Light Rain  
Wind Chill: 41°   Ceiling: 400
Heat Index: 46°   Visibility: 7mi
Dew Point: 46°   Wind: 10mph
Humidity: 100%   Direction: 10°N
Pressure: 30.19"   Gusts: NA
Location:  32.5075°N, 92.6828°W
Report Text: KRSN 192335Z AUTO 01009KT 7SM -RA OVC004 08/08 A3019 RMK AO2 T00800080
Loading
Personal Weather Stations






























Interactive Weather Map New forecast layout! Learn more

10-Day Weather Forecast

Advertisements
Track Severe Weather on mobile